Ashton, Nebraska
Current Conditions -  °F | °C
As of 2:53 AM on Saturday 29 Nov 2014 (Local Time) from KODX Reporting Station
Clear Clear  
Wind Chill: 51°   Ceiling: Unl
Heat Index: 51°   Visibility: 10mi
Dew Point: 20°   Wind: 13mph
Humidity: 29%   Direction: 250°WSW
Pressure: 29.56"   Gusts: NA
Location:  41.25°N, 98.79°W
Report Text: KODX 290853Z AUTO 25011KT 10SM CLR 11/M07 A2956 RMK AO2 SLP005 T01061067 55006 $
Loading
Personal Weather Stations






























Interactive Weather Map New forecast layout! Learn more

10-Day Weather Forecast

Advertisements
Track Severe Weather on mobile